Time;durP1;ratioP1;P1;durP2;ratioP2;P2;SDS_P1;SDS_P2;PMS_P1;PMS_P2;Temp;Humidity;BMP_temperature;BMP_pressure;BME280_temperature;BME280_humidity;BME280_pressure;Samples;Min_cycle;Max_cycle;Signal;HPM_P1;HPM_P2
2022/06/30 00:01:30;;;;;;;17.67;14.47;;;20.80;89.20;;;;;;4873730;29;20238;-61
2022/06/30 00:03:56;;;;;;;17.40;15.70;;;20.70;88.30;;;;;;4881848;29;20191;-61
2022/06/30 00:06:22;;;;;;;19.80;17.97;;;20.70;89.50;;;;;;4890779;29;20247;-61
2022/06/30 00:08:47;;;;;;;19.83;18.03;;;20.70;90.50;;;;;;4868927;29;20220;-60
2022/06/30 00:11:13;;;;;;;21.17;19.17;;;20.80;91.30;;;;;;4864003;29;20203;-60
2022/06/30 00:13:42;;;;;;;20.23;18.50;;;20.80;91.60;;;;;;4856074;29;20232;-60
2022/06/30 00:16:09;;;;;;;22.57;20.33;;;20.80;92.10;;;;;;4873277;29;20305;-61
2022/06/30 00:18:35;;;;;;;20.73;18.70;;;20.90;92.20;;;;;;4882152;29;20199;-60
2022/06/30 00:21:01;;;;;;;18.60;16.87;;;20.90;91.90;;;;;;4851543;29;20208;-61
2022/06/30 00:23:27;;;;;;;16.93;15.10;;;20.80;90.50;;;;;;4882070;29;20192;-61
2022/06/30 00:25:53;;;;;;;15.27;13.97;;;20.80;88.90;;;;;;4866576;29;20289;-60
2022/06/30 00:28:19;;;;;;;16.83;15.13;;;20.80;89.30;;;;;;4865382;29;20255;-60
2022/06/30 00:30:50;;;;;;;19.10;17.40;;;20.80;89.50;;;;;;4866031;29;20196;-61
2022/06/30 00:33:16;;;;;;;18.87;16.80;;;20.80;90.90;;;;;;4884075;29;20208;-60
2022/06/30 00:35:43;;;;;;;21.23;19.20;;;20.80;91.70;;;;;;4863783;29;20203;-60
2022/06/30 00:38:09;;;;;;;24.67;22.17;;;20.80;92.20;;;;;;4892691;29;20194;-61
2022/06/30 00:40:40;;;;;;;22.50;20.23;;;20.90;93.00;;;;;;4881237;29;20188;-60
2022/06/30 00:43:06;;;;;;;20.60;18.50;;;21.00;92.90;;;;;;4864628;29;20204;-60
2022/06/30 00:45:32;;;;;;;17.93;16.27;;;20.90;92.20;;;;;;4885489;29;20198;-60
2022/06/30 00:48:01;;;;;;;17.30;15.50;;;20.90;91.40;;;;;;4879129;29;20222;-60
2022/06/30 00:50:27;;;;;;;16.23;14.73;;;20.80;90.00;;;;;;4867830;29;20219;-60
2022/06/30 00:52:54;;;;;;;17.20;15.50;;;20.80;89.60;;;;;;4870390;29;20208;-60
2022/06/30 00:55:20;;;;;;;19.17;17.37;;;20.80;90.00;;;;;;4884984;29;20191;-61
2022/06/30 00:57:46;;;;;;;18.07;16.47;;;20.80;90.80;;;;;;4859938;29;20211;-60
2022/06/30 01:00:13;;;;;;;17.97;16.47;;;20.80;91.80;;;;;;4865507;29;20238;-60
2022/06/30 01:02:39;;;;;;;18.53;16.83;;;20.90;91.90;;;;;;4873376;29;20196;-60
2022/06/30 01:05:06;;;;;;;17.97;16.13;;;20.90;92.60;;;;;;4902888;29;20191;-60
2022/06/30 01:07:34;;;;;;;19.43;17.43;;;21.00;92.10;;;;;;4861653;29;20227;-60
2022/06/30 01:12:47;;;;;;;13.77;12.43;;;21.00;92.50;;;;;;4901463;29;20203;-60
2022/06/30 01:15:19;;;;;;;15.37;13.97;;;21.00;89.00;;;;;;4884333;29;20207;-60
2022/06/30 01:17:46;;;;;;;17.07;14.70;;;20.90;90.10;;;;;;4883538;29;20194;-60
2022/06/30 01:20:13;;;;;;;17.10;15.30;;;20.90;90.20;;;;;;4866312;29;20207;-60
2022/06/30 01:22:39;;;;;;;17.67;16.07;;;21.00;90.90;;;;;;4865678;29;20204;-60
2022/06/30 01:25:06;;;;;;;18.43;16.63;;;20.90;91.10;;;;;;4889962;29;20211;-60
2022/06/30 01:27:32;;;;;;;13.80;12.50;;;20.90;91.10;;;;;;4884036;29;20246;-60
2022/06/30 01:29:58;;;;;;;13.43;12.13;;;20.80;88.40;;;;;;4896957;29;20283;-60
2022/06/30 01:32:25;;;;;;;13.33;12.00;;;20.80;88.40;;;;;;4868299;29;20230;-60
2022/06/30 01:34:51;;;;;;;13.37;12.07;;;20.80;87.60;;;;;;4900749;29;20236;-60
2022/06/30 01:37:17;;;;;;;13.70;12.47;;;20.70;87.50;;;;;;4869545;29;20196;-60
2022/06/30 01:39:43;;;;;;;13.20;11.83;;;20.70;87.90;;;;;;4883788;29;20267;-60
2022/06/30 01:42:09;;;;;;;14.20;12.80;;;20.70;87.40;;;;;;4882592;29;20192;-60
2022/06/30 01:44:35;;;;;;;13.13;11.93;;;20.70;88.30;;;;;;4883251;29;20252;-60
2022/06/30 01:47:00;;;;;;;13.77;12.37;;;20.60;88.00;;;;;;4853376;29;20202;-60
2022/06/30 01:49:26;;;;;;;13.57;12.37;;;20.60;88.80;;;;;;4869095;29;20207;-60
2022/06/30 01:51:52;;;;;;;13.53;12.23;;;20.60;88.20;;;;;;4869718;29;20192;-60
2022/06/30 01:54:17;;;;;;;16.60;11.80;;;20.60;88.70;;;;;;4884241;29;20196;-60
2022/06/30 01:56:43;;;;;;;16.00;13.07;;;20.70;88.70;;;;;;4884059;29;20192;-60
2022/06/30 01:59:09;;;;;;;16.30;13.43;;;20.70;90.00;;;;;;4900995;29;20195;-60
2022/06/30 02:01:35;;;;;;;14.83;13.33;;;20.70;90.70;;;;;;4853981;29;20206;-60
2022/06/30 02:06:45;;;;;;;11.53;10.27;;;20.60;88.10;;;;;;4901159;29;20199;-60
2022/06/30 02:09:11;;;;;;;12.60;11.40;;;20.60;87.10;;;;;;4868734;29;20207;-60
2022/06/30 02:11:37;;;;;;;14.07;12.67;;;20.60;87.50;;;;;;4848196;29;20209;-60
2022/06/30 02:14:03;;;;;;;14.20;12.90;;;20.60;89.00;;;;;;4883960;29;20199;-60
2022/06/30 02:16:28;;;;;;;14.30;12.93;;;20.60;89.10;;;;;;4868800;29;20192;-60
2022/06/30 02:18:54;;;;;;;12.50;11.07;;;20.60;89.60;;;;;;4867957;29;20198;-60
2022/06/30 02:21:20;;;;;;;11.53;10.33;;;20.60;89.40;;;;;;4865248;29;20200;-60
2022/06/30 02:23:46;;;;;;;12.00;10.90;;;20.50;87.60;;;;;;4846736;29;20219;-60
2022/06/30 02:26:11;;;;;;;12.63;10.50;;;20.60;88.50;;;;;;4867829;29;20218;-61
2022/06/30 02:28:37;;;;;;;13.23;12.03;;;20.60;88.10;;;;;;4867889;29;20247;-60
2022/06/30 02:31:02;;;;;;;11.83;10.80;;;20.60;88.60;;;;;;4851255;29;20204;-60
2022/06/30 02:33:28;;;;;;;13.67;12.23;;;20.70;89.10;;;;;;4883793;29;20197;-60
2022/06/30 02:35:54;;;;;;;12.03;10.83;;;20.60;89.20;;;;;;4856213;29;20196;-60
2022/06/30 02:38:19;;;;;;;12.50;11.20;;;20.60;87.60;;;;;;4867263;29;20207;-60
2022/06/30 02:40:45;;;;;;;11.57;10.13;;;20.60;88.30;;;;;;4868213;29;20195;-60
2022/06/30 02:43:11;;;;;;;12.07;11.00;;;20.70;87.90;;;;;;4852475;29;20215;-60
2022/06/30 02:45:36;;;;;;;12.20;10.47;;;20.70;87.90;;;;;;4862252;29;20204;-60
2022/06/30 02:48:02;;;;;;;13.03;11.67;;;20.70;87.60;;;;;;4866711;29;20229;-60
2022/06/30 02:50:29;;;;;;;12.53;11.27;;;20.60;89.00;;;;;;4865258;29;20285;-60
2022/06/30 02:52:54;;;;;;;12.67;11.37;;;20.60;88.60;;;;;;4860796;29;20287;-60
2022/06/30 02:55:21;;;;;;;13.17;10.97;;;20.60;89.30;;;;;;4882755;29;20282;-60
2022/06/30 02:57:46;;;;;;;12.57;10.57;;;20.60;88.60;;;;;;4868531;29;20203;-60
2022/06/30 03:00:13;;;;;;;12.83;11.47;;;20.50;88.20;;;;;;4881590;29;20200;-60
2022/06/30 03:02:40;;;;;;;11.17;10.00;;;20.40;88.50;;;;;;4864855;29;20196;-61
2022/06/30 03:05:07;;;;;;;12.90;11.60;;;20.50;89.00;;;;;;4872194;29;20195;-61
2022/06/30 03:07:33;;;;;;;14.43;12.93;;;20.50;90.00;;;;;;4848383;29;20212;-61
2022/06/30 03:09:59;;;;;;;13.40;12.20;;;20.60;90.60;;;;;;4877092;29;20244;-61
2022/06/30 03:12:24;;;;;;;13.17;11.97;;;20.60;90.70;;;;;;4861362;29;20197;-61
2022/06/30 03:14:50;;;;;;;12.77;11.57;;;20.50;90.10;;;;;;4882662;29;20219;-61
2022/06/30 03:17:16;;;;;;;12.87;11.70;;;20.60;90.20;;;;;;4867511;29;20195;-61
2022/06/30 03:19:42;;;;;;;14.57;11.80;;;20.60;91.20;;;;;;4852279;29;20195;-61
2022/06/30 03:22:08;;;;;;;13.53;12.17;;;20.60;90.20;;;;;;4867250;29;20192;-61
2022/06/30 03:24:33;;;;;;;14.67;12.27;;;20.60;90.80;;;;;;4852382;29;20196;-61
2022/06/30 03:26:59;;;;;;;13.20;11.83;;;20.70;90.90;;;;;;4860761;29;20240;-61
2022/06/30 03:29:25;;;;;;;13.27;11.97;;;20.60;89.90;;;;;;4851109;29;20235;-61
2022/06/30 03:31:50;;;;;;;12.03;10.90;;;20.50;89.50;;;;;;4846233;29;20292;-61
2022/06/30 03:34:16;;;;;;;12.90;11.50;;;20.60;90.40;;;;;;4866432;29;20200;-61
2022/06/30 03:36:42;;;;;;;13.40;12.17;;;20.70;90.90;;;;;;4843747;29;20206;-61
2022/06/30 03:39:07;;;;;;;14.10;12.70;;;20.60;91.10;;;;;;4851731;29;20204;-61
2022/06/30 03:41:33;;;;;;;13.60;12.40;;;20.70;91.50;;;;;;4866828;29;20203;-61
2022/06/30 03:43:59;;;;;;;13.70;12.47;;;20.70;91.50;;;;;;4866672;29;20228;-61
2022/06/30 03:46:25;;;;;;;13.63;12.33;;;20.70;91.10;;;;;;4873462;29;20203;-61
2022/06/30 03:48:50;;;;;;;15.53;14.10;;;20.60;91.70;;;;;;4866620;29;20216;-61
2022/06/30 03:51:16;;;;;;;13.93;12.63;;;20.70;92.10;;;;;;4852433;29;20206;-61
2022/06/30 03:53:42;;;;;;;12.93;11.73;;;20.70;91.40;;;;;;4866980;29;20195;-61
2022/06/30 03:56:07;;;;;;;13.43;12.23;;;20.60;91.50;;;;;;4851489;29;20195;-61
2022/06/30 03:58:34;;;;;;;13.17;12.00;;;20.60;92.10;;;;;;4850220;29;20199;-61
2022/06/30 04:00:59;;;;;;;13.40;12.20;;;20.50;92.00;;;;;;4856820;29;20204;-62
2022/06/30 04:03:25;;;;;;;14.10;12.73;;;20.50;91.70;;;;;;4865376;29;20198;-62
2022/06/30 04:05:51;;;;;;;14.37;12.87;;;20.50;91.20;;;;;;4865413;29;20204;-61
2022/06/30 04:08:17;;;;;;;12.97;11.80;;;20.50;92.10;;;;;;4840801;29;20292;-62
2022/06/30 04:10:43;;;;;;;14.87;13.43;;;20.50;92.00;;;;;;4856356;29;20191;-61
2022/06/30 04:13:09;;;;;;;14.47;13.17;;;20.50;92.20;;;;;;4878110;29;20183;-61
2022/06/30 04:15:34;;;;;;;13.03;11.73;;;20.50;92.30;;;;;;4878533;29;20188;-61
2022/06/30 04:18:00;;;;;;;12.73;11.57;;;20.50;91.50;;;;;;4884843;29;20290;-61
2022/06/30 04:20:26;;;;;;;13.00;11.70;;;20.50;91.50;;;;;;4852575;29;20210;-61
2022/06/30 04:22:53;;;;;;;14.23;12.63;;;20.50;91.90;;;;;;4854418;29;20205;-62
2022/06/30 04:25:19;;;;;;;14.63;12.80;;;20.50;92.10;;;;;;4855214;29;20229;-62
2022/06/30 04:27:50;;;;;;;13.67;12.37;;;20.50;92.30;;;;;;4885512;29;20246;-61
2022/06/30 04:32:37;;;;;;;15.63;12.90;;;20.50;92.20;;;;;;4866961;29;20188;-60
2022/06/30 04:33:03;;;;;;;13.67;12.47;;;20.50;91.50;;;;;;4886524;29;20187;-61
2022/06/30 04:35:28;;;;;;;14.47;13.13;;;20.50;91.90;;;;;;4858357;29;20192;-61
2022/06/30 04:37:58;;;;;;;12.90;11.70;;;20.50;92.20;;;;;;4860470;29;20203;-61
2022/06/30 04:43:08;;;;;;;13.03;11.73;;;20.50;92.10;;;;;;4883979;29;20276;-61
2022/06/30 04:45:34;;;;;;;12.43;11.20;;;20.60;91.60;;;;;;4853930;29;20275;-61
2022/06/30 04:47:59;;;;;;;12.57;11.47;;;20.60;91.50;;;;;;4856828;29;20223;-61
2022/06/30 04:50:25;;;;;;;12.30;11.20;;;20.60;91.20;;;;;;4853880;29;20303;-61
2022/06/30 04:52:51;;;;;;;11.83;10.50;;;20.60;91.30;;;;;;4852742;29;20290;-61
2022/06/30 04:55:16;;;;;;;10.57;9.57;;;20.60;90.40;;;;;;4854145;29;20223;-63
2022/06/30 04:57:42;;;;;;;11.87;10.37;;;20.60;90.20;;;;;;4863461;29;20200;-62
2022/06/30 05:00:08;;;;;;;10.30;9.30;;;20.50;89.00;;;;;;4862667;29;20200;-62
2022/06/30 05:02:34;;;;;;;10.17;9.27;;;20.50;89.00;;;;;;4863511;29;20224;-60
2022/06/30 05:04:59;;;;;;;11.77;10.67;;;20.60;89.20;;;;;;4868382;29;20238;-63
2022/06/30 05:07:25;;;;;;;10.63;9.70;;;20.60;90.00;;;;;;4848521;29;20204;-62
2022/06/30 05:09:51;;;;;;;10.17;9.27;;;20.60;90.10;;;;;;4864619;29;20210;-61
2022/06/30 05:12:16;;;;;;;11.77;10.57;;;20.60;89.30;;;;;;4856795;29;20283;-61
2022/06/30 05:14:42;;;;;;;12.00;10.90;;;20.60;90.90;;;;;;4883568;29;20233;-61
2022/06/30 05:17:08;;;;;;;12.57;11.40;;;20.60;90.80;;;;;;4877564;29;20192;-61
2022/06/30 05:19:34;;;;;;;15.37;10.40;;;20.60;91.10;;;;;;4848832;29;20200;-61
2022/06/30 05:22:00;;;;;;;11.17;10.13;;;20.60;90.60;;;;;;4855761;29;20203;-61
2022/06/30 05:27:11;;;;;;;10.50;9.40;;;20.60;91.00;;;;;;4876164;29;20259;-61
2022/06/30 05:29:37;;;;;;;10.87;9.90;;;20.70;91.00;;;;;;4861523;29;20191;-60
2022/06/30 05:32:04;;;;;;;10.60;9.60;;;20.70;90.30;;;;;;4854637;29;20245;-61
2022/06/30 05:34:30;;;;;;;10.33;9.43;;;20.70;89.70;;;;;;4856868;29;20286;-60
2022/06/30 05:36:55;;;;;;;11.83;9.87;;;20.80;90.10;;;;;;4849857;29;20295;-61
2022/06/30 05:39:21;;;;;;;9.47;8.53;;;20.80;89.10;;;;;;4856065;29;20196;-60
2022/06/30 05:41:47;;;;;;;10.07;8.90;;;20.80;87.40;;;;;;4854129;29;20205;-61
2022/06/30 05:44:12;;;;;;;9.40;8.07;;;20.80;87.40;;;;;;4851521;29;20207;-61
2022/06/30 05:46:38;;;;;;;9.20;8.23;;;20.80;87.10;;;;;;4839532;29;20206;-61
2022/06/30 05:49:06;;;;;;;8.87;8.07;;;20.80;86.10;;;;;;4849740;29;20273;-61
2022/06/30 05:51:32;;;;;;;8.73;7.93;;;20.90;87.10;;;;;;4864777;29;20216;-61
2022/06/30 05:53:58;;;;;;;9.03;7.73;;;20.90;85.70;;;;;;4850558;29;20227;-61
2022/06/30 05:56:23;;;;;;;9.00;8.10;;;20.90;86.60;;;;;;4849349;29;20196;-61
2022/06/30 05:58:49;;;;;;;9.73;8.83;;;21.00;86.20;;;;;;4847535;29;20207;-61
2022/06/30 06:01:15;;;;;;;11.80;8.00;;;21.10;86.80;;;;;;4873622;29;20231;-61
2022/06/30 06:03:40;;;;;;;8.43;7.63;;;21.10;85.60;;;;;;4867323;29;20197;-61
2022/06/30 06:06:06;;;;;;;8.20;7.40;;;21.10;84.80;;;;;;4849229;29;20216;-61
2022/06/30 06:08:32;;;;;;;9.40;7.27;;;21.20;85.20;;;;;;4849135;29;20216;-61
2022/06/30 06:10:57;;;;;;;8.23;7.53;;;21.20;84.50;;;;;;4852436;29;20220;-60
2022/06/30 06:13:23;;;;;;;8.17;7.37;;;21.20;85.00;;;;;;4856200;29;20210;-61
2022/06/30 06:15:49;;;;;;;8.60;7.80;;;21.20;84.70;;;;;;4851871;29;20291;-61
2022/06/30 06:18:15;;;;;;;7.77;6.90;;;21.30;84.80;;;;;;4866939;29;20203;-60
2022/06/30 06:20:42;;;;;;;10.07;7.90;;;21.20;84.50;;;;;;4881851;29;20196;-61
2022/06/30 06:23:08;;;;;;;9.07;8.13;;;21.30;84.80;;;;;;4849258;29;20211;-61
2022/06/30 06:25:34;;;;;;;9.40;8.37;;;21.30;85.00;;;;;;4854330;29;20204;-61
2022/06/30 06:30:44;;;;;;;8.90;8.17;;;21.50;84.90;;;;;;4863304;29;20282;-62
2022/06/30 06:33:10;;;;;;;8.93;8.13;;;21.50;85.20;;;;;;4848541;29;20275;-61
2022/06/30 06:35:36;;;;;;;7.97;7.17;;;21.50;85.20;;;;;;4849704;29;20207;-62
2022/06/30 06:38:02;;;;;;;9.13;7.27;;;21.50;84.30;;;;;;4863880;29;20196;-61
2022/06/30 06:40:28;;;;;;;8.97;8.13;;;21.70;83.40;;;;;;4879491;29;20275;-61
2022/06/30 06:42:54;;;;;;;7.50;6.80;;;21.80;83.60;;;;;;4873113;29;20317;-61
2022/06/30 06:45:20;;;;;;;8.57;7.67;;;21.70;83.50;;;;;;4861279;29;20220;-61
2022/06/30 06:47:46;;;;;;;9.00;8.10;;;21.80;83.80;;;;;;4856302;29;20220;-61
2022/06/30 06:50:11;;;;;;;8.40;7.60;;;21.80;85.00;;;;;;4874774;29;20264;-61
2022/06/30 06:52:37;;;;;;;8.30;7.50;;;21.80;84.00;;;;;;4843224;29;20357;-61
2022/06/30 06:55:04;;;;;;;10.13;7.40;;;21.80;83.40;;;;;;4856481;29;20195;-61
2022/06/30 06:57:37;;;;;;;8.43;7.57;;;22.00;82.50;;;;;;4865331;29;20275;-62
2022/06/30 07:00:07;;;;;;;8.53;7.67;;;22.10;82.40;;;;;;4878587;29;20252;-62
2022/06/30 07:02:33;;;;;;;9.50;7.33;;;22.10;83.10;;;;;;4870483;29;20192;-62
2022/06/30 07:04:59;;;;;;;7.97;7.37;;;22.00;82.70;;;;;;4849807;29;20195;-62
2022/06/30 07:07:25;;;;;;;7.47;6.77;;;22.00;82.90;;;;;;4860025;29;20308;-62
2022/06/30 07:09:51;;;;;;;8.60;7.77;;;22.10;81.80;;;;;;4858389;29;20287;-61
2022/06/30 07:12:16;;;;;;;8.67;7.80;;;22.20;81.80;;;;;;4863194;29;20363;-61
2022/06/30 07:14:42;;;;;;;7.77;7.07;;;22.20;82.00;;;;;;4866220;29;20187;-61
2022/06/30 07:17:08;;;;;;;8.27;7.50;;;22.20;82.30;;;;;;4851011;29;20267;-61
2022/06/30 07:19:33;;;;;;;8.27;7.47;;;22.20;82.80;;;;;;4842018;29;20196;-61
2022/06/30 07:21:59;;;;;;;8.57;7.83;;;22.20;81.70;;;;;;4864563;29;20207;-61
2022/06/30 07:24:25;;;;;;;8.33;7.47;;;22.20;82.80;;;;;;4845051;29;20203;-61
2022/06/30 07:26:50;;;;;;;7.67;7.00;;;22.40;81.50;;;;;;4863053;29;20252;-61
2022/06/30 07:29:16;;;;;;;7.93;7.27;;;22.40;81.10;;;;;;4859099;29;20230;-61
2022/06/30 07:31:42;;;;;;;8.43;7.43;;;22.50;80.40;;;;;;4849236;29;20235;-61
2022/06/30 07:34:08;;;;;;;9.97;7.30;;;22.60;80.20;;;;;;4848973;29;20518;-61
2022/06/30 07:36:35;;;;;;;7.20;6.60;;;22.60;80.70;;;;;;4864943;29;20203;-61
2022/06/30 07:39:01;;;;;;;7.87;7.17;;;22.50;81.60;;;;;;4875133;29;20192;-61
2022/06/30 07:41:28;;;;;;;8.60;7.70;;;22.70;79.50;;;;;;4865765;29;20405;-61
2022/06/30 07:43:54;;;;;;;8.20;7.43;;;22.70;79.80;;;;;;4880624;29;20283;-61
2022/06/30 07:46:20;;;;;;;8.57;7.77;;;22.70;80.60;;;;;;4865633;29;20291;-61
2022/06/30 07:48:47;;;;;;;8.33;6.67;;;22.70;79.50;;;;;;4865818;29;20215;-61
2022/06/30 07:51:13;;;;;;;7.60;6.83;;;22.80;79.20;;;;;;4865075;29;20195;-61
2022/06/30 07:53:39;;;;;;;8.50;6.83;;;22.80;79.10;;;;;;4881321;29;20219;-61
2022/06/30 07:56:04;;;;;;;7.73;7.03;;;23.10;77.20;;;;;;4858056;29;20220;-61
2022/06/30 07:58:30;;;;;;;7.87;7.17;;;23.30;76.90;;;;;;4878793;29;20196;-61
2022/06/30 08:00:56;;;;;;;8.87;6.33;;;23.30;76.10;;;;;;4864511;29;20196;-61
2022/06/30 08:03:22;;;;;;;7.43;6.20;;;23.30;76.10;;;;;;4842289;29;20196;-61
2022/06/30 08:05:47;;;;;;;7.30;6.70;;;23.30;75.30;;;;;;4838664;29;20295;-61
2022/06/30 08:08:13;;;;;;;8.50;5.90;;;23.40;76.70;;;;;;4865784;29;20223;-61
2022/06/30 08:10:39;;;;;;;8.77;6.47;;;23.50;73.10;;;;;;4866449;29;20188;-61
2022/06/30 08:13:04;;;;;;;7.93;5.77;;;23.50;72.50;;;;;;4864552;29;20199;-61
2022/06/30 08:15:30;;;;;;;6.63;6.03;;;23.50;73.30;;;;;;4850509;29;20214;-61
2022/06/30 08:18:04;;;;;;;7.83;6.17;;;23.50;75.10;;;;;;4837652;29;20208;-61
2022/06/30 08:20:30;;;;;;;9.70;6.20;;;23.40;75.30;;;;;;4870847;29;20232;-61
2022/06/30 08:22:56;;;;;;;6.93;6.33;;;23.60;72.30;;;;;;4880866;29;20228;-61
2022/06/30 08:25:22;;;;;;;6.77;5.87;;;23.70;73.40;;;;;;4878705;29;20193;-61
2022/06/30 08:27:48;;;;;;;9.73;5.97;;;23.70;74.20;;;;;;4855969;29;20251;-61
2022/06/30 08:30:13;;;;;;;6.43;5.77;;;23.80;76.90;;;;;;4843994;29;20264;-61
2022/06/30 08:32:40;;;;;;;11.63;6.00;;;23.80;69.10;;;;;;4875858;29;20188;-61
2022/06/30 08:35:06;;;;;;;6.73;5.73;;;23.90;73.70;;;;;;4854794;29;20198;-61
2022/06/30 08:37:31;;;;;;;8.27;5.50;;;24.00;74.90;;;;;;4861300;29;20222;-61
2022/06/30 08:42:43;;;;;;;6.87;5.87;;;24.20;71.30;;;;;;4879369;29;20210;-61
2022/06/30 08:45:17;;;;;;;7.00;5.73;;;24.30;69.50;;;;;;4863335;29;20193;-61
2022/06/30 08:47:47;;;;;;;6.60;6.10;;;24.60;67.10;;;;;;4868685;29;20219;-61
2022/06/30 08:50:15;;;;;;;9.00;6.30;;;24.80;67.00;;;;;;4864175;29;20192;-61
2022/06/30 08:52:44;;;;;;;8.33;6.10;;;24.70;68.30;;;;;;4879593;29;20212;-61
2022/06/30 08:55:12;;;;;;;8.40;6.27;;;24.70;68.20;;;;;;4879720;29;20230;-61
2022/06/30 08:57:40;;;;;;;5.47;5.03;;;24.70;72.60;;;;;;4879194;29;20246;-61
2022/06/30 09:00:06;;;;;;;7.80;6.00;;;24.70;66.90;;;;;;4879912;29;20188;-62
2022/06/30 09:02:32;;;;;;;7.80;6.40;;;24.70;71.40;;;;;;4864505;29;20188;-61
2022/06/30 09:04:58;;;;;;;6.33;5.73;;;24.70;75.50;;;;;;4852631;29;20252;-61
2022/06/30 09:07:24;;;;;;;7.20;6.23;;;24.60;72.20;;;;;;4852365;29;20188;-61
2022/06/30 09:09:50;;;;;;;7.83;7.03;;;24.70;75.90;;;;;;4868583;29;20202;-61
2022/06/30 09:12:17;;;;;;;7.97;6.00;;;24.70;79.00;;;;;;4851630;29;20192;-61
2022/06/30 09:14:48;;;;;;;8.80;6.23;;;24.70;72.60;;;;;;4852343;29;20191;-61
2022/06/30 09:17:17;;;;;;;6.87;6.03;;;24.70;72.40;;;;;;4882774;29;20184;-61
2022/06/30 09:19:59;;;;;;;7.53;5.90;;;24.80;72.50;;;;;;4883433;29;20184;-61
2022/06/30 09:22:34;;;;;;;6.67;6.03;;;24.90;72.10;;;;;;4899582;29;20195;-62
2022/06/30 09:25:01;;;;;;;6.60;6.03;;;25.00;69.10;;;;;;4883640;29;20225;-62
2022/06/30 09:27:29;;;;;;;7.37;5.60;;;25.10;67.50;;;;;;4871869;29;20243;-62
2022/06/30 09:29:56;;;;;;;7.47;6.53;;;25.10;66.70;;;;;;4859846;29;20259;-62
2022/06/30 09:32:22;;;;;;;7.00;6.30;;;25.00;70.30;;;;;;4861556;29;20196;-62
2022/06/30 09:34:50;;;;;;;10.77;6.27;;;25.00;74.70;;;;;;4831048;29;20201;-62
2022/06/30 09:37:23;;;;;;;7.00;6.23;;;25.00;74.80;;;;;;4841862;29;20219;-62
2022/06/30 09:39:51;;;;;;;8.70;6.00;;;25.00;71.60;;;;;;4831237;29;20201;-62
2022/06/30 09:42:43;;;;;;;9.07;6.30;;;25.00;69.30;;;;;;4848555;29;20192;-62
2022/06/30 09:45:11;;;;;;;8.20;6.50;;;25.00;75.00;;;;;;4858809;29;20181;-61
2022/06/30 09:47:37;;;;;;;8.17;6.53;;;25.10;76.50;;;;;;4827822;29;20192;-61
2022/06/30 09:50:06;;;;;;;10.13;6.63;;;25.10;78.70;;;;;;4844971;29;20204;-61
2022/06/30 09:52:32;;;;;;;7.50;6.80;;;25.10;74.30;;;;;;4847131;29;20189;-61
2022/06/30 09:55:07;;;;;;;6.80;6.23;;;25.20;74.00;;;;;;4855457;29;20197;-61
2022/06/30 09:57:39;;;;;;;6.83;6.20;;;25.30;74.50;;;;;;4837203;29;20192;-61
2022/06/30 10:00:08;;;;;;;7.93;6.37;;;25.30;68.10;;;;;;4857974;29;20199;-61
2022/06/30 10:02:54;;;;;;;6.90;6.20;;;25.30;67.90;;;;;;4861359;29;20268;-61
2022/06/30 10:05:20;;;;;;;9.07;6.53;;;25.30;66.10;;;;;;4844552;29;20239;-62
2022/06/30 10:07:46;;;;;;;6.63;6.13;;;25.30;71.10;;;;;;4847786;29;20243;-62
2022/06/30 10:10:16;;;;;;;8.00;6.53;;;25.20;69.30;;;;;;4849053;29;20220;-62
2022/06/30 10:12:45;;;;;;;6.70;6.07;;;25.30;71.90;;;;;;4848485;29;20287;-62
2022/06/30 10:15:12;;;;;;;8.70;7.50;;;25.20;72.20;;;;;;4848843;29;20196;-61
2022/06/30 10:17:44;;;;;;;7.53;6.87;;;25.30;75.00;;;;;;4844968;29;20200;-62
2022/06/30 10:20:10;;;;;;;8.73;7.10;;;25.40;76.90;;;;;;4857927;29;20234;-62
2022/06/30 10:22:39;;;;;;;8.33;6.90;;;25.50;77.60;;;;;;4862771;29;20201;-62
2022/06/30 10:25:06;;;;;;;7.67;6.90;;;25.60;77.40;;;;;;4846017;29;20189;-62
2022/06/30 10:27:31;;;;;;;7.83;6.17;;;25.70;77.30;;;;;;4841080;29;20240;-62
2022/06/30 10:30:09;;;;;;;7.57;6.93;;;25.70;77.80;;;;;;4844765;29;20200;-62
2022/06/30 10:32:55;;;;;;;9.03;6.87;;;25.80;77.50;;;;;;4876726;29;20180;-62
2022/06/30 10:35:41;;;;;;;7.20;6.60;;;25.90;70.00;;;;;;4869698;29;20189;-62
2022/06/30 10:38:31;;;;;;;8.07;7.17;;;26.10;72.90;;;;;;4877416;29;20215;-62
2022/06/30 10:41:13;;;;;;;7.70;7.10;;;26.20;71.90;;;;;;4870821;29;20204;-62
2022/06/30 10:44:04;;;;;;;7.90;7.03;;;26.40;73.80;;;;;;4860429;29;20207;-62
2022/06/30 10:46:51;;;;;;;8.60;7.90;;;26.50;74.80;;;;;;4870788;29;20191;-62
2022/06/30 10:49:17;;;;;;;8.73;7.07;;;26.70;75.20;;;;;;4860656;29;20247;-62
2022/06/30 10:51:45;;;;;;;8.10;7.37;;;26.70;72.30;;;;;;4855999;29;20219;-61
2022/06/30 10:54:29;;;;;;;7.80;7.10;;;26.80;70.70;;;;;;4869808;29;20232;-61
2022/06/30 10:56:56;;;;;;;8.30;6.87;;;26.90;71.00;;;;;;4857610;29;20201;-61
2022/06/30 10:59:39;;;;;;;7.40;6.30;;;26.90;63.90;;;;;;4845310;29;20205;-61
2022/06/30 11:02:08;;;;;;;8.73;6.20;;;26.90;60.70;;;;;;4860462;29;20197;-61
2022/06/30 11:04:35;;;;;;;7.73;6.80;;;26.90;60.50;;;;;;4855323;29;20196;-62
2022/06/30 11:07:07;;;;;;;9.23;7.13;;;26.90;60.30;;;;;;4873260;29;20205;-61
2022/06/30 11:09:47;;;;;;;9.57;6.97;;;26.90;65.80;;;;;;4833803;29;20325;-61
2022/06/30 11:12:23;;;;;;;7.30;6.60;;;26.90;69.30;;;;;;4866720;29;20213;-61
2022/06/30 11:14:52;;;;;;;7.83;7.00;;;26.90;68.70;;;;;;4875199;29;20266;-61
2022/06/30 11:17:21;;;;;;;9.27;7.83;;;26.90;71.20;;;;;;4864825;29;20192;-61
2022/06/30 11:19:48;;;;;;;7.87;7.10;;;26.90;72.40;;;;;;4874227;29;20203;-62
2022/06/30 11:22:16;;;;;;;8.43;7.57;;;27.00;68.30;;;;;;4854659;29;20196;-61
2022/06/30 11:24:45;;;;;;;7.70;7.00;;;27.10;65.70;;;;;;4875588;29;20261;-62
2022/06/30 11:27:25;;;;;;;7.30;6.70;;;27.20;65.40;;;;;;4849492;29;20236;-61
2022/06/30 11:29:58;;;;;;;9.70;7.60;;;27.30;66.90;;;;;;4846951;29;20217;-61
2022/06/30 11:32:24;;;;;;;7.43;6.73;;;27.50;65.10;;;;;;4859015;29;20181;-61
2022/06/30 11:34:50;;;;;;;7.67;7.07;;;27.70;63.60;;;;;;4849585;29;20272;-61
2022/06/30 11:37:24;;;;;;;7.30;6.67;;;27.80;61.80;;;;;;4830531;29;20197;-61
2022/06/30 11:40:07;;;;;;;7.60;6.77;;;27.80;59.30;;;;;;4851108;29;20205;-61
2022/06/30 11:42:33;;;;;;;8.83;6.37;;;28.00;61.80;;;;;;4853486;29;20193;-61
2022/06/30 11:44:59;;;;;;;9.83;7.13;;;28.20;62.40;;;;;;4844150;29;20209;-61
2022/06/30 11:47:29;;;;;;;7.57;6.87;;;28.20;62.50;;;;;;4838255;29;20196;-61
2022/06/30 11:49:59;;;;;;;14.93;11.10;;;28.20;62.30;;;;;;4862106;29;20260;-61
2022/06/30 11:52:31;;;;;;;15.13;10.63;;;28.20;63.80;;;;;;4851369;29;20207;-61
2022/06/30 11:55:04;;;;;;;62.13;36.20;;;28.20;59.40;;;;;;4868097;29;20197;-61
2022/06/30 11:57:36;;;;;;;46.17;26.63;;;28.20;66.20;;;;;;4858601;29;20203;-61
2022/06/30 12:00:07;;;;;;;18.93;12.67;;;28.20;64.10;;;;;;4862991;29;20196;-61
2022/06/30 12:02:35;;;;;;;18.27;14.43;;;28.40;60.90;;;;;;4861136;29;20282;-61
2022/06/30 12:05:03;;;;;;;27.40;19.33;;;28.90;61.60;;;;;;4841191;29;20204;-62
2022/06/30 12:07:30;;;;;;;20.93;13.97;;;29.50;62.60;;;;;;4862782;29;20192;-61
2022/06/30 12:09:57;;;;;;;18.10;13.90;;;30.10;60.90;;;;;;4845225;29;20197;-60
2022/06/30 12:12:28;;;;;;;18.73;12.70;;;30.70;58.30;;;;;;4843826;29;20315;-61
2022/06/30 12:14:58;;;;;;;23.83;15.37;;;31.40;58.70;;;;;;4861209;29;20203;-61
2022/06/30 12:17:25;;;;;;;8.80;7.77;;;31.90;59.60;;;;;;4861055;29;20224;-61
2022/06/30 12:19:54;;;;;;;13.93;10.90;;;32.00;54.70;;;;;;4833150;29;20324;-61
2022/06/30 12:22:20;;;;;;;7.27;6.53;;;32.00;54.80;;;;;;4835736;29;20304;-62
2022/06/30 12:24:48;;;;;;;14.40;11.17;;;32.50;50.20;;;;;;4847465;29;20204;-61
2022/06/30 12:27:40;;;;;;;13.60;10.10;;;32.80;56.00;;;;;;4856427;29;20235;-61
2022/06/30 12:30:17;;;;;;;6.13;5.70;;;33.20;55.20;;;;;;4893102;29;20196;-61
2022/06/30 12:32:51;;;;;;;6.73;5.90;;;33.80;51.10;;;;;;4881945;29;20191;-61
2022/06/30 12:35:21;;;;;;;6.00;5.50;;;34.80;47.00;;;;;;4898280;29;20194;-61
2022/06/30 12:37:47;;;;;;;6.17;5.57;;;35.50;45.90;;;;;;4878990;29;20196;-61
2022/06/30 12:40:16;;;;;;;6.67;5.87;;;35.90;45.50;;;;;;4851901;29;20203;-61
2022/06/30 12:42:41;;;;;;;5.90;5.10;;;36.50;45.90;;;;;;4882479;29;20204;-61
2022/06/30 12:45:33;;;;;;;6.28;5.63;;;37.20;44.60;;;;;;4889722;29;20196;-61
2022/06/30 12:47:59;;;;;;;6.20;5.22;;;37.60;42.00;;;;;;4884313;29;20211;-61
2022/06/30 12:50:24;;;;;;;6.22;5.70;;;37.70;41.00;;;;;;4889820;29;20217;-61
2022/06/30 12:52:50;;;;;;;6.32;5.72;;;37.30;40.00;;;;;;4862473;29;20196;-61
2022/06/30 12:55:16;;;;;;;7.75;6.22;;;36.10;43.70;;;;;;4865900;29;20231;-61
2022/06/30 12:57:49;;;;;;;9.63;5.37;;;35.10;44.80;;;;;;4892279;29;20184;-61